METAR Data
IDs: Format: Raw Decoded Include TAF

Data at: 0622 UTC 24 Sep 2018

KALB 240551Z 02006KT 10SM CLR 11/08 A3038 RMK AO2 SLP288 T01110078 10139 20106 53016
KALB 240451Z 36003KT 10SM FEW270 11/09 A3036 RMK AO2 SLP281 T01060089 401890072
KALB 240351Z 00000KT 10SM FEW270 11/09 A3035 RMK AO2 SLP277 T01110089
KALB 240251Z 00000KT 10SM FEW270 12/09 A3033 RMK AO2 SLP273 T01170094 51020
KALB 240151Z 00000KT 10SM BKN270 12/10 A3032 RMK AO2 SLP267 T01220100
KALB 240051Z 00000KT 10SM BKN270 13/09 A3030 RMK AO2 SLP260 T01330094
KALB 232351Z 00000KT 10SM BKN270 14/09 A3028 RMK AO2 SLP252 T01390094 10189 20139 53014
KALB 232251Z 00000KT 10SM SCT220 BKN300 15/09 A3026 RMK AO2 SLP247 T01500094
KALB 232151Z 13003KT 10SM SCT220 BKN300 18/09 A3025 RMK AO2 SLP243 T01780089
KALB 232051Z 11003KT 10SM SCT220 BKN300 18/08 A3023 RMK AO2 SLP239 T01830083 55007
KALB 231951Z 20004KT 10SM FEW030 SCT220 BKN300 18/07 A3023 RMK AO2 SLP236 T01830072
KALB 231851Z 19005KT 10SM FEW030 BKN260 BKN300 18/07 A3024 RMK AO2 SLP239 T01830072
KALB 231751Z 00000KT 10SM FEW030 BKN260 18/06 A3026 RMK AO2 SLP246 T01780061 10178 20089 58010
KALB 231651Z 00000KT 10SM FEW030 BKN260 17/08 A3027 RMK AO2 SLP250 T01720078
KALB 231551Z 00000KT 10SM FEW020 SCT250 BKN300 16/08 A3028 RMK AO2 SLP254 T01610083
KALB 231451Z 04003KT 10SM FEW020 SCT250 BKN300 15/08 A3029 RMK AO2 SLP257 T01500083 50001
KALB 231351Z 00000KT 10SM FEW010 SCT250 13/08 A3029 RMK AO2 SLP259 T01330078
KALB 231251Z 00000KT 10SM FEW005 BKN250 11/09 A3029 RMK AO2 SLP259 T01110089
KALB 231221Z 00000KT 3SM BCFG SCT002 SCT200 SCT250 10/08 A3029 RMK AO2 VIS W-NW 1 1/2 VIS NE-E 10 BCFG W-NW T01000078
KALB 231213Z 00000KT 2SM BR SCT002 SCT200 SCT250 09/08 A3028 RMK AO2 VIS W-NW 1 1/2 T00940078
KALB 231204Z 00000KT 1/4SM R01/0800VP6000FT FG SCT000 SCT200 SCT250 09/08 A3028 RMK AO2 SFC VIS 1/2 VIS E 10 T00940078
KALB 231151Z 00000KT 1/4SM R01/0400V1000FT FG SCT000 SCT200 SCT250 09/08 A3029 RMK AO2 SLP256 VIS E 10 T00890078 10111 20072 53003
KALB 231130Z 00000KT 1/4SM R01/P6000FT BCFG SCT002 SCT150 BKN240 08/07 A3028 RMK AO2 SFC VIS 1 VIS 1/2V10 BCFG S-NE T00830067
KALB 231117Z 00000KT 1SM R01/P6000FT BCFG SCT002 SCT150 SCT240 07/06 A3029 RMK AO2 VIS 1/2V10 BCFG S-N T00720061
KALB 231051Z COR 00000KT 10SM BCFG SCT240 08/06 A3028 RMK AO2 SLP255 VIS SW-NW 1/2 BCFG SW-NW T00780061
KALB 230951Z 00000KT 10SM SCT260 08/07 A3027 RMK AO2 SLP252 T00830067
KALB 230851Z 00000KT 10SM FEW060 BKN260 09/06 A3027 RMK AO2 SLP252 T00890061 53009
KALB 230751Z 00000KT 10SM FEW100 OVC260 09/07 A3026 RMK AO2 SLP248 T00940067
KALB 230651Z 30003KT 10SM FEW070 OVC260 11/07 A3024 RMK AO2 SLP242 T01060067
KALB 230551Z 36004KT 10SM FEW200 OVC260 11/07 A3025 RMK AO2 SLP243 T01060067 10150 20100 53002
KALB 230451Z 34005KT 10SM BKN270 11/07 A3024 RMK AO2 SLP241 T01110072 402170111
KALB 230351Z 35004KT 10SM OVC270 11/07 A3024 RMK AO2 SLP242 T01110067
KALB 230251Z 27003KT 10SM BKN270 12/07 A3024 RMK AO2 SLP241 T01170072 52006
KALB 230151Z 00000KT 10SM FEW230 BKN270 12/08 A3023 RMK AO2 SLP238 T01220078
KALB 230051Z 00000KT 10SM SCT230 BKN270 14/08 A3023 RMK AO2 SLP238 T01390078
KALB 222351Z 35003KT 10SM FEW047 SCT230 BKN270 15/08 A3022 RMK AO2 SLP235 T01500083 10194 20144 51019
KALB 222251Z 03004KT 10SM FEW047 SCT230 BKN270 17/09 A3021 RMK AO2 SLP228 T01670094
KALB 222151Z COR 32006KT 10SM FEW047 SCT230 BKN270 18/08 A3019 RMK AO2 SLP223 FEW V SCT T01780078
KALB 222051Z 34004KT 10SM FEW045 BKN240 BKN270 18/08 A3017 RMK AO2 SLP215 T01830083 56004
KALB 221951Z 35006KT 10SM FEW045 SCT230 BKN270 19/08 A3018 RMK AO2 SLP218 T01890078
KALB 221851Z 35005KT 10SM FEW045 SCT230 BKN270 19/08 A3017 RMK AO2 SLP216 T01890078